sensor_id;sensor_type;location;lat;lon;timestamp;P1;durP1;ratioP1;P2;durP2;ratioP2
64188;SDS011;50493;50.970;10.082;2022-12-10T00:01:31;16.02;;;8.13;;
64188;SDS011;50493;50.970;10.082;2022-12-10T00:03:58;15.77;;;7.90;;
64188;SDS011;50493;50.970;10.082;2022-12-10T00:06:26;16.65;;;8.02;;
64188;SDS011;50493;50.970;10.082;2022-12-10T00:08:53;16.65;;;7.57;;
64188;SDS011;50493;50.970;10.082;2022-12-10T00:11:19;16.42;;;7.70;;
64188;SDS011;50493;50.970;10.082;2022-12-10T00:13:47;16.85;;;8.05;;
64188;SDS011;50493;50.970;10.082;2022-12-10T00:16:14;15.65;;;7.43;;
64188;SDS011;50493;50.970;10.082;2022-12-10T00:18:42;16.67;;;8.07;;
64188;SDS011;50493;50.970;10.082;2022-12-10T00:21:08;16.35;;;7.93;;
64188;SDS011;50493;50.970;10.082;2022-12-10T00:23:36;16.75;;;8.00;;
64188;SDS011;50493;50.970;10.082;2022-12-10T00:26:02;15.85;;;8.20;;
64188;SDS011;50493;50.970;10.082;2022-12-10T00:28:29;17.98;;;8.32;;
64188;SDS011;50493;50.970;10.082;2022-12-10T00:30:55;16.25;;;7.65;;
64188;SDS011;50493;50.970;10.082;2022-12-10T00:33:26;17.55;;;8.50;;
64188;SDS011;50493;50.970;10.082;2022-12-10T00:35:51;15.10;;;7.80;;
64188;SDS011;50493;50.970;10.082;2022-12-10T00:38:17;16.40;;;7.30;;
64188;SDS011;50493;50.970;10.082;2022-12-10T00:40:42;16.55;;;7.97;;
64188;SDS011;50493;50.970;10.082;2022-12-10T00:43:08;17.95;;;8.43;;
64188;SDS011;50493;50.970;10.082;2022-12-10T00:45:33;16.65;;;8.07;;
64188;SDS011;50493;50.970;10.082;2022-12-10T00:48:00;17.15;;;8.32;;
64188;SDS011;50493;50.970;10.082;2022-12-10T00:50:25;18.38;;;8.23;;
64188;SDS011;50493;50.970;10.082;2022-12-10T00:52:50;15.77;;;6.93;;
64188;SDS011;50493;50.970;10.082;2022-12-10T00:55:16;16.27;;;7.63;;
64188;SDS011;50493;50.970;10.082;2022-12-10T00:57:42;16.90;;;7.97;;
64188;SDS011;50493;50.970;10.082;2022-12-10T01:00:07;18.00;;;8.15;;
64188;SDS011;50493;50.970;10.082;2022-12-10T01:02:34;16.90;;;7.40;;
64188;SDS011;50493;50.970;10.082;2022-12-10T01:05:00;17.58;;;8.40;;
64188;SDS011;50493;50.970;10.082;2022-12-10T01:07:26;17.83;;;8.85;;
64188;SDS011;50493;50.970;10.082;2022-12-10T01:09:51;16.35;;;7.88;;
64188;SDS011;50493;50.970;10.082;2022-12-10T01:12:16;23.10;;;10.35;;
64188;SDS011;50493;50.970;10.082;2022-12-10T01:14:42;17.63;;;8.15;;
64188;SDS011;50493;50.970;10.082;2022-12-10T01:17:07;15.13;;;7.45;;
64188;SDS011;50493;50.970;10.082;2022-12-10T01:19:33;24.20;;;11.32;;
64188;SDS011;50493;50.970;10.082;2022-12-10T01:22:00;20.05;;;9.10;;
64188;SDS011;50493;50.970;10.082;2022-12-10T01:24:26;26.05;;;11.55;;
64188;SDS011;50493;50.970;10.082;2022-12-10T01:26:52;17.23;;;8.35;;
64188;SDS011;50493;50.970;10.082;2022-12-10T01:29:19;21.77;;;9.88;;
64188;SDS011;50493;50.970;10.082;2022-12-10T01:31:45;22.98;;;10.73;;
64188;SDS011;50493;50.970;10.082;2022-12-10T01:34:14;26.58;;;11.50;;
64188;SDS011;50493;50.970;10.082;2022-12-10T01:36:40;24.33;;;11.35;;
64188;SDS011;50493;50.970;10.082;2022-12-10T01:39:09;17.02;;;7.55;;
64188;SDS011;50493;50.970;10.082;2022-12-10T01:41:38;17.15;;;8.02;;
64188;SDS011;50493;50.970;10.082;2022-12-10T01:47:04;19.02;;;9.10;;
64188;SDS011;50493;50.970;10.082;2022-12-10T01:49:31;17.58;;;8.35;;
64188;SDS011;50493;50.970;10.082;2022-12-10T01:51:58;16.98;;;8.48;;
64188;SDS011;50493;50.970;10.082;2022-12-10T01:54:26;27.50;;;12.68;;
64188;SDS011;50493;50.970;10.082;2022-12-10T01:56:54;24.05;;;10.73;;
64188;SDS011;50493;50.970;10.082;2022-12-10T01:59:24;24.15;;;11.00;;
64188;SDS011;50493;50.970;10.082;2022-12-10T02:01:52;18.75;;;8.52;;
64188;SDS011;50493;50.970;10.082;2022-12-10T02:04:26;26.27;;;11.77;;
64188;SDS011;50493;50.970;10.082;2022-12-10T02:06:58;17.50;;;8.35;;
64188;SDS011;50493;50.970;10.082;2022-12-10T02:09:30;24.25;;;11.15;;
64188;SDS011;50493;50.970;10.082;2022-12-10T02:12:06;17.38;;;8.10;;
64188;SDS011;50493;50.970;10.082;2022-12-10T02:14:38;21.08;;;9.70;;
64188;SDS011;50493;50.970;10.082;2022-12-10T02:17:12;26.40;;;12.02;;
64188;SDS011;50493;50.970;10.082;2022-12-10T02:19:51;22.30;;;9.25;;
64188;SDS011;50493;50.970;10.082;2022-12-10T02:22:25;17.45;;;8.18;;
64188;SDS011;50493;50.970;10.082;2022-12-10T02:24:54;21.80;;;9.77;;
64188;SDS011;50493;50.970;10.082;2022-12-10T02:27:24;23.40;;;11.05;;
64188;SDS011;50493;50.970;10.082;2022-12-10T02:29:54;19.83;;;8.85;;
64188;SDS011;50493;50.970;10.082;2022-12-10T02:32:23;21.48;;;9.45;;
64188;SDS011;50493;50.970;10.082;2022-12-10T02:34:55;17.38;;;8.27;;
64188;SDS011;50493;50.970;10.082;2022-12-10T02:37:24;22.75;;;10.38;;
64188;SDS011;50493;50.970;10.082;2022-12-10T02:39:54;18.85;;;8.18;;
64188;SDS011;50493;50.970;10.082;2022-12-10T02:42:23;25.80;;;11.68;;
64188;SDS011;50493;50.970;10.082;2022-12-10T02:44:54;17.70;;;8.10;;
64188;SDS011;50493;50.970;10.082;2022-12-10T02:47:22;17.55;;;7.88;;
64188;SDS011;50493;50.970;10.082;2022-12-10T02:49:49;18.55;;;8.57;;
64188;SDS011;50493;50.970;10.082;2022-12-10T02:52:19;18.77;;;8.30;;
64188;SDS011;50493;50.970;10.082;2022-12-10T02:54:46;19.90;;;9.05;;
64188;SDS011;50493;50.970;10.082;2022-12-10T02:57:22;23.42;;;10.45;;
64188;SDS011;50493;50.970;10.082;2022-12-10T03:02:43;23.58;;;10.55;;
64188;SDS011;50493;50.970;10.082;2022-12-10T03:05:20;22.52;;;10.35;;
64188;SDS011;50493;50.970;10.082;2022-12-10T03:07:50;23.35;;;11.07;;
64188;SDS011;50493;50.970;10.082;2022-12-10T03:10:24;22.13;;;9.18;;
64188;SDS011;50493;50.970;10.082;2022-12-10T03:12:54;19.52;;;8.77;;
64188;SDS011;50493;50.970;10.082;2022-12-10T03:15:25;19.67;;;9.05;;
64188;SDS011;50493;50.970;10.082;2022-12-10T03:17:53;22.02;;;10.60;;
64188;SDS011;50493;50.970;10.082;2022-12-10T03:20:20;18.88;;;8.52;;
64188;SDS011;50493;50.970;10.082;2022-12-10T03:22:49;24.98;;;10.95;;
64188;SDS011;50493;50.970;10.082;2022-12-10T03:25:16;25.63;;;12.35;;
64188;SDS011;50493;50.970;10.082;2022-12-10T03:27:44;24.83;;;12.00;;
64188;SDS011;50493;50.970;10.082;2022-12-10T03:30:14;18.83;;;8.50;;
64188;SDS011;50493;50.970;10.082;2022-12-10T03:32:42;17.05;;;8.00;;
64188;SDS011;50493;50.970;10.082;2022-12-10T03:35:09;19.20;;;8.98;;
64188;SDS011;50493;50.970;10.082;2022-12-10T03:37:36;22.85;;;10.27;;
64188;SDS011;50493;50.970;10.082;2022-12-10T03:40:02;17.73;;;8.57;;
64188;SDS011;50493;50.970;10.082;2022-12-10T03:42:29;19.42;;;8.38;;
64188;SDS011;50493;50.970;10.082;2022-12-10T03:44:55;22.42;;;10.00;;
64188;SDS011;50493;50.970;10.082;2022-12-10T03:47:20;19.20;;;8.60;;
64188;SDS011;50493;50.970;10.082;2022-12-10T03:49:48;18.48;;;8.40;;
64188;SDS011;50493;50.970;10.082;2022-12-10T03:52:13;17.40;;;8.55;;
64188;SDS011;50493;50.970;10.082;2022-12-10T03:54:39;22.33;;;10.48;;
64188;SDS011;50493;50.970;10.082;2022-12-10T03:57:05;16.92;;;7.82;;
64188;SDS011;50493;50.970;10.082;2022-12-10T03:59:30;17.67;;;8.48;;
64188;SDS011;50493;50.970;10.082;2022-12-10T04:01:56;22.73;;;10.23;;
64188;SDS011;50493;50.970;10.082;2022-12-10T04:04:21;20.92;;;9.30;;
64188;SDS011;50493;50.970;10.082;2022-12-10T04:06:48;22.67;;;10.07;;
64188;SDS011;50493;50.970;10.082;2022-12-10T04:09:14;23.73;;;10.60;;
64188;SDS011;50493;50.970;10.082;2022-12-10T04:11:40;19.05;;;8.35;;
64188;SDS011;50493;50.970;10.082;2022-12-10T04:14:07;23.33;;;10.45;;
64188;SDS011;50493;50.970;10.082;2022-12-10T04:16:52;19.90;;;9.02;;
64188;SDS011;50493;50.970;10.082;2022-12-10T04:19:17;21.33;;;9.95;;
64188;SDS011;50493;50.970;10.082;2022-12-10T04:21:44;20.85;;;8.85;;
64188;SDS011;50493;50.970;10.082;2022-12-10T04:24:30;21.85;;;9.75;;
64188;SDS011;50493;50.970;10.082;2022-12-10T04:27:16;23.92;;;10.25;;
64188;SDS011;50493;50.970;10.082;2022-12-10T04:29:44;24.65;;;11.15;;
64188;SDS011;50493;50.970;10.082;2022-12-10T04:32:10;22.67;;;10.65;;
64188;SDS011;50493;50.970;10.082;2022-12-10T04:34:36;20.98;;;9.32;;
64188;SDS011;50493;50.970;10.082;2022-12-10T04:37:02;23.55;;;10.70;;
64188;SDS011;50493;50.970;10.082;2022-12-10T04:39:30;21.30;;;10.45;;
64188;SDS011;50493;50.970;10.082;2022-12-10T04:41:56;24.55;;;10.82;;
64188;SDS011;50493;50.970;10.082;2022-12-10T04:44:23;25.40;;;11.00;;
64188;SDS011;50493;50.970;10.082;2022-12-10T04:46:49;19.88;;;8.85;;
64188;SDS011;50493;50.970;10.082;2022-12-10T04:49:15;25.10;;;11.13;;
64188;SDS011;50493;50.970;10.082;2022-12-10T04:51:41;18.63;;;8.35;;
64188;SDS011;50493;50.970;10.082;2022-12-10T04:54:06;23.75;;;10.63;;
64188;SDS011;50493;50.970;10.082;2022-12-10T04:56:34;22.60;;;9.75;;
64188;SDS011;50493;50.970;10.082;2022-12-10T04:58:59;22.33;;;10.85;;
64188;SDS011;50493;50.970;10.082;2022-12-10T05:01:25;19.60;;;8.98;;
64188;SDS011;50493;50.970;10.082;2022-12-10T05:03:51;23.02;;;10.45;;
64188;SDS011;50493;50.970;10.082;2022-12-10T05:06:17;23.25;;;10.43;;
64188;SDS011;50493;50.970;10.082;2022-12-10T05:08:44;25.88;;;11.68;;
64188;SDS011;50493;50.970;10.082;2022-12-10T05:11:11;19.88;;;8.52;;
64188;SDS011;50493;50.970;10.082;2022-12-10T05:13:39;22.00;;;9.38;;
64188;SDS011;50493;50.970;10.082;2022-12-10T05:16:05;22.67;;;10.55;;
64188;SDS011;50493;50.970;10.082;2022-12-10T05:18:33;24.25;;;10.75;;
64188;SDS011;50493;50.970;10.082;2022-12-10T05:20:58;23.27;;;10.90;;
64188;SDS011;50493;50.970;10.082;2022-12-10T05:23:24;26.00;;;11.23;;
64188;SDS011;50493;50.970;10.082;2022-12-10T05:25:57;30.73;;;11.77;;
64188;SDS011;50493;50.970;10.082;2022-12-10T05:28:23;20.60;;;9.27;;
64188;SDS011;50493;50.970;10.082;2022-12-10T05:30:50;22.13;;;9.40;;
64188;SDS011;50493;50.970;10.082;2022-12-10T05:33:15;22.00;;;10.25;;
64188;SDS011;50493;50.970;10.082;2022-12-10T05:35:41;20.90;;;9.25;;
64188;SDS011;50493;50.970;10.082;2022-12-10T05:38:06;20.80;;;9.68;;
64188;SDS011;50493;50.970;10.082;2022-12-10T05:40:33;17.95;;;8.30;;
64188;SDS011;50493;50.970;10.082;2022-12-10T05:42:59;17.92;;;8.27;;
64188;SDS011;50493;50.970;10.082;2022-12-10T05:45:24;19.30;;;8.57;;
64188;SDS011;50493;50.970;10.082;2022-12-10T05:47:51;18.77;;;8.70;;
64188;SDS011;50493;50.970;10.082;2022-12-10T05:50:16;20.13;;;8.85;;
64188;SDS011;50493;50.970;10.082;2022-12-10T05:52:42;24.17;;;10.27;;
64188;SDS011;50493;50.970;10.082;2022-12-10T05:55:07;20.52;;;9.25;;
64188;SDS011;50493;50.970;10.082;2022-12-10T05:57:33;18.35;;;8.50;;
64188;SDS011;50493;50.970;10.082;2022-12-10T06:00:00;17.55;;;8.05;;
64188;SDS011;50493;50.970;10.082;2022-12-10T06:02:26;19.02;;;9.27;;
64188;SDS011;50493;50.970;10.082;2022-12-10T06:04:52;26.10;;;11.38;;
64188;SDS011;50493;50.970;10.082;2022-12-10T06:07:18;22.80;;;10.10;;
64188;SDS011;50493;50.970;10.082;2022-12-10T06:09:43;22.20;;;9.98;;
64188;SDS011;50493;50.970;10.082;2022-12-10T06:12:09;18.67;;;8.13;;
64188;SDS011;50493;50.970;10.082;2022-12-10T06:14:34;26.00;;;11.98;;
64188;SDS011;50493;50.970;10.082;2022-12-10T06:16:59;28.77;;;13.77;;
64188;SDS011;50493;50.970;10.082;2022-12-10T06:19:25;21.30;;;9.13;;
64188;SDS011;50493;50.970;10.082;2022-12-10T06:21:52;23.60;;;10.65;;
64188;SDS011;50493;50.970;10.082;2022-12-10T06:24:17;16.30;;;8.05;;
64188;SDS011;50493;50.970;10.082;2022-12-10T06:26:42;16.85;;;8.48;;
64188;SDS011;50493;50.970;10.082;2022-12-10T06:29:08;21.60;;;9.32;;
64188;SDS011;50493;50.970;10.082;2022-12-10T06:31:34;18.02;;;9.02;;
64188;SDS011;50493;50.970;10.082;2022-12-10T06:33:59;24.65;;;12.38;;
64188;SDS011;50493;50.970;10.082;2022-12-10T06:36:24;17.10;;;8.00;;
64188;SDS011;50493;50.970;10.082;2022-12-10T06:38:52;17.65;;;8.02;;
64188;SDS011;50493;50.970;10.082;2022-12-10T06:41:17;18.90;;;7.78;;
64188;SDS011;50493;50.970;10.082;2022-12-10T06:43:45;18.10;;;8.05;;
64188;SDS011;50493;50.970;10.082;2022-12-10T06:46:11;17.35;;;8.60;;
64188;SDS011;50493;50.970;10.082;2022-12-10T06:48:38;18.30;;;8.60;;
64188;SDS011;50493;50.970;10.082;2022-12-10T06:51:04;22.35;;;9.68;;
64188;SDS011;50493;50.970;10.082;2022-12-10T06:53:30;17.45;;;7.90;;
64188;SDS011;50493;50.970;10.082;2022-12-10T06:55:58;18.50;;;8.02;;
64188;SDS011;50493;50.970;10.082;2022-12-10T06:58:26;17.80;;;7.88;;
64188;SDS011;50493;50.970;10.082;2022-12-10T07:00:52;18.40;;;8.82;;
64188;SDS011;50493;50.970;10.082;2022-12-10T07:03:17;16.90;;;7.78;;
64188;SDS011;50493;50.970;10.082;2022-12-10T07:05:42;17.63;;;7.85;;
64188;SDS011;50493;50.970;10.082;2022-12-10T07:08:08;18.25;;;8.30;;
64188;SDS011;50493;50.970;10.082;2022-12-10T07:10:33;17.70;;;8.00;;
64188;SDS011;50493;50.970;10.082;2022-12-10T07:13:00;17.23;;;7.90;;
64188;SDS011;50493;50.970;10.082;2022-12-10T07:15:26;16.85;;;7.57;;
64188;SDS011;50493;50.970;10.082;2022-12-10T07:17:53;19.55;;;9.27;;
64188;SDS011;50493;50.970;10.082;2022-12-10T07:20:18;21.02;;;9.98;;
64188;SDS011;50493;50.970;10.082;2022-12-10T07:22:44;22.80;;;10.65;;
64188;SDS011;50493;50.970;10.082;2022-12-10T07:25:09;24.23;;;10.80;;
64188;SDS011;50493;50.970;10.082;2022-12-10T07:27:35;23.05;;;10.90;;
64188;SDS011;50493;50.970;10.082;2022-12-10T07:30:01;21.35;;;10.05;;
64188;SDS011;50493;50.970;10.082;2022-12-10T07:32:27;20.27;;;9.45;;
64188;SDS011;50493;50.970;10.082;2022-12-10T07:34:53;18.38;;;8.10;;
64188;SDS011;50493;50.970;10.082;2022-12-10T07:37:18;15.57;;;7.20;;
64188;SDS011;50493;50.970;10.082;2022-12-10T07:39:43;18.88;;;8.45;;
64188;SDS011;50493;50.970;10.082;2022-12-10T07:42:09;18.83;;;8.02;;
64188;SDS011;50493;50.970;10.082;2022-12-10T07:44:34;17.60;;;7.70;;
64188;SDS011;50493;50.970;10.082;2022-12-10T07:47:01;18.92;;;8.88;;
64188;SDS011;50493;50.970;10.082;2022-12-10T07:49:26;21.63;;;9.82;;
64188;SDS011;50493;50.970;10.082;2022-12-10T07:51:54;21.55;;;9.43;;
64188;SDS011;50493;50.970;10.082;2022-12-10T07:54:19;19.60;;;8.85;;
64188;SDS011;50493;50.970;10.082;2022-12-10T07:56:45;26.63;;;11.13;;
64188;SDS011;50493;50.970;10.082;2022-12-10T07:59:10;23.98;;;10.98;;
64188;SDS011;50493;50.970;10.082;2022-12-10T08:01:36;18.08;;;8.52;;
64188;SDS011;50493;50.970;10.082;2022-12-10T08:04:03;19.70;;;9.48;;
64188;SDS011;50493;50.970;10.082;2022-12-10T08:06:28;23.65;;;10.60;;
64188;SDS011;50493;50.970;10.082;2022-12-10T08:08:54;22.67;;;9.73;;
64188;SDS011;50493;50.970;10.082;2022-12-10T08:11:22;19.10;;;8.68;;
64188;SDS011;50493;50.970;10.082;2022-12-10T08:13:48;16.00;;;7.82;;
64188;SDS011;50493;50.970;10.082;2022-12-10T08:16:16;16.88;;;8.23;;
64188;SDS011;50493;50.970;10.082;2022-12-10T08:18:43;18.17;;;8.38;;
64188;SDS011;50493;50.970;10.082;2022-12-10T08:21:11;18.58;;;8.73;;
64188;SDS011;50493;50.970;10.082;2022-12-10T08:23:37;16.90;;;7.70;;
64188;SDS011;50493;50.970;10.082;2022-12-10T08:26:03;17.85;;;8.60;;
64188;SDS011;50493;50.970;10.082;2022-12-10T08:28:29;22.60;;;9.70;;
64188;SDS011;50493;50.970;10.082;2022-12-10T08:30:55;17.90;;;8.00;;
64188;SDS011;50493;50.970;10.082;2022-12-10T08:33:20;15.23;;;7.28;;
64188;SDS011;50493;50.970;10.082;2022-12-10T08:35:46;14.07;;;6.13;;
64188;SDS011;50493;50.970;10.082;2022-12-10T08:38:12;15.77;;;7.28;;
64188;SDS011;50493;50.970;10.082;2022-12-10T08:40:38;14.82;;;7.00;;
64188;SDS011;50493;50.970;10.082;2022-12-10T08:43:04;15.38;;;7.00;;
64188;SDS011;50493;50.970;10.082;2022-12-10T08:45:29;17.88;;;9.00;;
64188;SDS011;50493;50.970;10.082;2022-12-10T08:47:55;31.23;;;13.95;;
64188;SDS011;50493;50.970;10.082;2022-12-10T08:50:20;17.17;;;8.43;;
64188;SDS011;50493;50.970;10.082;2022-12-10T08:52:46;15.70;;;7.05;;
64188;SDS011;50493;50.970;10.082;2022-12-10T08:55:12;17.13;;;8.60;;
64188;SDS011;50493;50.970;10.082;2022-12-10T08:57:38;16.50;;;8.27;;
64188;SDS011;50493;50.970;10.082;2022-12-10T09:00:04;16.75;;;7.68;;
64188;SDS011;50493;50.970;10.082;2022-12-10T09:02:31;16.20;;;7.82;;
64188;SDS011;50493;50.970;10.082;2022-12-10T09:04:56;15.23;;;7.43;;
64188;SDS011;50493;50.970;10.082;2022-12-10T09:07:22;14.30;;;6.88;;
64188;SDS011;50493;50.970;10.082;2022-12-10T09:09:47;14.70;;;6.60;;
64188;SDS011;50493;50.970;10.082;2022-12-10T09:12:14;13.82;;;6.68;;
64188;SDS011;50493;50.970;10.082;2022-12-10T09:14:39;14.25;;;6.75;;
64188;SDS011;50493;50.970;10.082;2022-12-10T09:17:06;17.70;;;8.60;;
64188;SDS011;50493;50.970;10.082;2022-12-10T09:19:33;15.13;;;7.90;;
64188;SDS011;50493;50.970;10.082;2022-12-10T09:21:58;13.30;;;6.55;;
64188;SDS011;50493;50.970;10.082;2022-12-10T09:24:24;13.27;;;6.50;;
64188;SDS011;50493;50.970;10.082;2022-12-10T09:26:49;15.30;;;6.85;;
64188;SDS011;50493;50.970;10.082;2022-12-10T09:29:16;14.38;;;6.55;;
64188;SDS011;50493;50.970;10.082;2022-12-10T09:31:42;14.30;;;6.63;;
64188;SDS011;50493;50.970;10.082;2022-12-10T09:34:07;13.95;;;6.57;;
64188;SDS011;50493;50.970;10.082;2022-12-10T09:36:33;15.68;;;7.63;;
64188;SDS011;50493;50.970;10.082;2022-12-10T09:38:58;14.45;;;6.60;;
64188;SDS011;50493;50.970;10.082;2022-12-10T09:41:36;14.05;;;7.00;;
64188;SDS011;50493;50.970;10.082;2022-12-10T09:44:12;14.98;;;6.72;;
64188;SDS011;50493;50.970;10.082;2022-12-10T09:46:53;14.77;;;6.68;;
64188;SDS011;50493;50.970;10.082;2022-12-10T09:49:23;14.38;;;6.95;;
64188;SDS011;50493;50.970;10.082;2022-12-10T09:51:59;15.60;;;6.55;;
64188;SDS011;50493;50.970;10.082;2022-12-10T09:54:28;12.77;;;5.97;;
64188;SDS011;50493;50.970;10.082;2022-12-10T09:56:56;17.98;;;8.30;;
64188;SDS011;50493;50.970;10.082;2022-12-10T09:59:24;15.75;;;7.22;;
64188;SDS011;50493;50.970;10.082;2022-12-10T10:01:59;15.70;;;7.07;;
64188;SDS011;50493;50.970;10.082;2022-12-10T10:04:28;18.55;;;8.57;;
64188;SDS011;50493;50.970;10.082;2022-12-10T10:06:54;14.70;;;7.00;;
64188;SDS011;50493;50.970;10.082;2022-12-10T10:09:20;19.35;;;9.70;;
64188;SDS011;50493;50.970;10.082;2022-12-10T10:11:46;16.27;;;8.15;;
64188;SDS011;50493;50.970;10.082;2022-12-10T10:14:13;15.68;;;7.93;;
64188;SDS011;50493;50.970;10.082;2022-12-10T10:16:45;15.77;;;7.80;;
64188;SDS011;50493;50.970;10.082;2022-12-10T10:19:14;14.82;;;7.05;;
64188;SDS011;50493;50.970;10.082;2022-12-10T10:21:43;13.63;;;6.70;;
64188;SDS011;50493;50.970;10.082;2022-12-10T10:24:12;17.17;;;7.93;;
64188;SDS011;50493;50.970;10.082;2022-12-10T10:26:39;15.98;;;7.75;;
64188;SDS011;50493;50.970;10.082;2022-12-10T10:29:05;14.52;;;7.43;;
64188;SDS011;50493;50.970;10.082;2022-12-10T10:31:33;16.48;;;8.35;;
64188;SDS011;50493;50.970;10.082;2022-12-10T10:34:04;16.23;;;7.05;;
64188;SDS011;50493;50.970;10.082;2022-12-10T10:36:37;16.05;;;7.60;;
64188;SDS011;50493;50.970;10.082;2022-12-10T10:39:07;15.93;;;8.18;;
64188;SDS011;50493;50.970;10.082;2022-12-10T10:41:35;16.92;;;8.27;;
64188;SDS011;50493;50.970;10.082;2022-12-10T10:44:02;15.43;;;7.40;;
64188;SDS011;50493;50.970;10.082;2022-12-10T10:46:29;15.25;;;6.80;;
64188;SDS011;50493;50.970;10.082;2022-12-10T10:49:11;15.93;;;7.25;;
64188;SDS011;50493;50.970;10.082;2022-12-10T10:51:43;15.20;;;6.90;;
64188;SDS011;50493;50.970;10.082;2022-12-10T10:54:10;14.98;;;7.00;;
64188;SDS011;50493;50.970;10.082;2022-12-10T10:56:38;13.18;;;6.57;;
64188;SDS011;50493;50.970;10.082;2022-12-10T10:59:06;13.70;;;7.40;;
64188;SDS011;50493;50.970;10.082;2022-12-10T11:01:52;13.75;;;6.43;;
64188;SDS011;50493;50.970;10.082;2022-12-10T11:04:21;13.05;;;6.32;;
64188;SDS011;50493;50.970;10.082;2022-12-10T11:06:50;12.10;;;5.95;;
64188;SDS011;50493;50.970;10.082;2022-12-10T11:09:20;12.95;;;6.35;;
64188;SDS011;50493;50.970;10.082;2022-12-10T11:11:49;13.13;;;6.13;;
64188;SDS011;50493;50.970;10.082;2022-12-10T11:14:22;10.50;;;5.05;;
64188;SDS011;50493;50.970;10.082;2022-12-10T11:16:49;13.95;;;7.07;;
64188;SDS011;50493;50.970;10.082;2022-12-10T11:19:18;14.27;;;7.25;;
64188;SDS011;50493;50.970;10.082;2022-12-10T11:21:47;10.85;;;6.13;;
64188;SDS011;50493;50.970;10.082;2022-12-10T11:24:15;12.07;;;6.32;;
64188;SDS011;50493;50.970;10.082;2022-12-10T11:26:50;9.80;;;4.97;;
64188;SDS011;50493;50.970;10.082;2022-12-10T11:29:28;11.13;;;5.22;;
64188;SDS011;50493;50.970;10.082;2022-12-10T11:32:09;10.43;;;5.68;;
64188;SDS011;50493;50.970;10.082;2022-12-10T11:34:49;11.82;;;5.38;;
64188;SDS011;50493;50.970;10.082;2022-12-10T11:37:29;12.25;;;5.72;;
64188;SDS011;50493;50.970;10.082;2022-12-10T11:40:01;11.40;;;5.72;;
64188;SDS011;50493;50.970;10.082;2022-12-10T11:42:39;11.85;;;5.95;;
64188;SDS011;50493;50.970;10.082;2022-12-10T11:45:15;11.70;;;5.93;;
64188;SDS011;50493;50.970;10.082;2022-12-10T11:47:55;14.55;;;8.15;;
64188;SDS011;50493;50.970;10.082;2022-12-10T11:50:33;12.20;;;5.72;;
64188;SDS011;50493;50.970;10.082;2022-12-10T11:53:14;9.20;;;4.38;;
64188;SDS011;50493;50.970;10.082;2022-12-10T11:55:53;15.23;;;7.55;;
64188;SDS011;50493;50.970;10.082;2022-12-10T11:58:39;14.27;;;7.00;;
64188;SDS011;50493;50.970;10.082;2022-12-10T12:01:16;13.20;;;6.55;;
64188;SDS011;50493;50.970;10.082;2022-12-10T12:06:31;14.38;;;6.40;;
64188;SDS011;50493;50.970;10.082;2022-12-10T12:09:10;12.27;;;5.60;;
64188;SDS011;50493;50.970;10.082;2022-12-10T12:11:47;13.85;;;6.47;;
64188;SDS011;50493;50.970;10.082;2022-12-10T12:14:29;10.95;;;5.18;;
64188;SDS011;50493;50.970;10.082;2022-12-10T12:17:02;12.25;;;5.68;;
64188;SDS011;50493;50.970;10.082;2022-12-10T12:19:36;11.45;;;5.28;;
64188;SDS011;50493;50.970;10.082;2022-12-10T12:22:06;12.73;;;6.45;;
64188;SDS011;50493;50.970;10.082;2022-12-10T12:24:47;10.90;;;5.30;;
64188;SDS011;50493;50.970;10.082;2022-12-10T12:27:18;10.10;;;5.18;;
64188;SDS011;50493;50.970;10.082;2022-12-10T12:29:52;10.55;;;5.47;;
64188;SDS011;50493;50.970;10.082;2022-12-10T12:32:26;12.10;;;5.97;;
64188;SDS011;50493;50.970;10.082;2022-12-10T12:34:56;12.65;;;6.55;;
64188;SDS011;50493;50.970;10.082;2022-12-10T12:37:29;13.38;;;6.63;;
64188;SDS011;50493;50.970;10.082;2022-12-10T12:40:02;13.57;;;6.47;;
64188;SDS011;50493;50.970;10.082;2022-12-10T12:42:37;13.05;;;7.13;;
64188;SDS011;50493;50.970;10.082;2022-12-10T12:45:10;11.65;;;5.95;;
64188;SDS011;50493;50.970;10.082;2022-12-10T12:47:39;14.32;;;6.22;;
64188;SDS011;50493;50.970;10.082;2022-12-10T12:50:11;12.68;;;5.88;;
64188;SDS011;50493;50.970;10.082;2022-12-10T12:52:52;12.75;;;6.10;;
64188;SDS011;50493;50.970;10.082;2022-12-10T12:55:20;15.35;;;7.30;;
64188;SDS011;50493;50.970;10.082;2022-12-10T12:57:53;15.63;;;7.20;;
64188;SDS011;50493;50.970;10.082;2022-12-10T13:00:23;12.90;;;6.53;;
64188;SDS011;50493;50.970;10.082;2022-12-10T13:02:52;12.88;;;5.97;;
64188;SDS011;50493;50.970;10.082;2022-12-10T13:05:24;12.77;;;6.03;;
64188;SDS011;50493;50.970;10.082;2022-12-10T13:10:50;15.52;;;7.32;;
64188;SDS011;50493;50.970;10.082;2022-12-10T13:13:21;12.80;;;6.82;;
64188;SDS011;50493;50.970;10.082;2022-12-10T13:15:49;22.95;;;10.38;;
64188;SDS011;50493;50.970;10.082;2022-12-10T13:18:19;12.70;;;5.97;;
64188;SDS011;50493;50.970;10.082;2022-12-10T13:20:48;11.40;;;5.90;;
64188;SDS011;50493;50.970;10.082;2022-12-10T13:26:21;12.27;;;5.78;;
64188;SDS011;50493;50.970;10.082;2022-12-10T13:28:49;14.45;;;6.55;;
64188;SDS011;50493;50.970;10.082;2022-12-10T13:31:20;13.85;;;6.57;;
64188;SDS011;50493;50.970;10.082;2022-12-10T13:34:18;14.40;;;7.18;;
64188;SDS011;50493;50.970;10.082;2022-12-10T13:39:45;18.30;;;9.43;;
64188;SDS011;50493;50.970;10.082;2022-12-10T13:42:26;15.02;;;7.45;;
64188;SDS011;50493;50.970;10.082;2022-12-10T13:45:24;12.57;;;6.32;;
64188;SDS011;50493;50.970;10.082;2022-12-10T13:47:53;14.13;;;6.70;;
64188;SDS011;50493;50.970;10.082;2022-12-10T13:50:20;29.40;;;13.10;;
64188;SDS011;50493;50.970;10.082;2022-12-10T13:53:01;26.00;;;13.02;;
64188;SDS011;50493;50.970;10.082;2022-12-10T13:55:35;18.98;;;8.80;;
64188;SDS011;50493;50.970;10.082;2022-12-10T14:00:46;14.40;;;6.38;;
64188;SDS011;50493;50.970;10.082;2022-12-10T14:06:32;14.38;;;7.15;;
64188;SDS011;50493;50.970;10.082;2022-12-10T14:09:00;15.70;;;7.10;;
64188;SDS011;50493;50.970;10.082;2022-12-10T14:11:31;15.73;;;7.15;;
64188;SDS011;50493;50.970;10.082;2022-12-10T14:14:00;24.80;;;12.48;;
64188;SDS011;50493;50.970;10.082;2022-12-10T14:16:27;11.75;;;6.70;;
64188;SDS011;50493;50.970;10.082;2022-12-10T14:18:56;12.48;;;6.40;;
64188;SDS011;50493;50.970;10.082;2022-12-10T14:21:24;15.82;;;6.70;;
64188;SDS011;50493;50.970;10.082;2022-12-10T14:23:52;10.23;;;5.40;;
64188;SDS011;50493;50.970;10.082;2022-12-10T14:26:18;12.57;;;6.10;;
64188;SDS011;50493;50.970;10.082;2022-12-10T14:28:48;14.75;;;7.15;;
64188;SDS011;50493;50.970;10.082;2022-12-10T14:31:15;13.18;;;6.32;;
64188;SDS011;50493;50.970;10.082;2022-12-10T14:33:43;12.55;;;6.22;;
64188;SDS011;50493;50.970;10.082;2022-12-10T14:36:15;16.38;;;8.18;;
64188;SDS011;50493;50.970;10.082;2022-12-10T14:38:45;24.50;;;10.23;;
64188;SDS011;50493;50.970;10.082;2022-12-10T14:41:12;17.42;;;9.13;;
64188;SDS011;50493;50.970;10.082;2022-12-10T14:43:42;21.23;;;9.35;;
64188;SDS011;50493;50.970;10.082;2022-12-10T14:46:13;17.90;;;8.40;;
64188;SDS011;50493;50.970;10.082;2022-12-10T14:48:40;23.10;;;10.70;;
64188;SDS011;50493;50.970;10.082;2022-12-10T14:51:10;33.35;;;13.52;;